DON PEDRO RESERVOIR (DNP)

Elevation: 830' · TUOLUMNE R basin · Operator: Turlock Irrigation District


Station comments:

11/04/2014Hourly storage has resumed as of 11/4/2014. It had previously stopped at 11/25/2009.


Provisional data, subject to change.
Query executed Sunday at 16:19:48   clock

Select a sensor type for a plot of data.
Note: Reservoir Flows are daily averages.

Earlier

Date RES ELE    STORAGE    RES CHG    TOC STO    ABV TOC    OUTFLOW    INFLOW    PPT INC   
 FEET   AF   AF   AF   AF   CFS   CFS   INCHES  
03/01/2015 710.43 872405 691 1690000 -- 173 521 0.00
03/02/2015 710.56 873789 1038 1690000 -816211 172 870 0.00
03/03/2015 710.67 874482 347 1690000 -815518 172 521 0.00
03/04/2015 710.53 873097 -1385 1690000 -816903 171 -527 0.00
03/05/2015 710.60 873789 0 1690000 -816211 162 511 0.00
03/06/2015 710.64 873789 -346 1690000 -- 294 294 0.00
03/07/2015 710.71 874482 693 1690000 -- 177 527 0.00
03/08/2015 710.77 875175 0 1690000 -814825 175 524 0.00
03/09/2015 710.86 875868 0 1690000 -814132 174 523 0.00
03/10/2015 710.95 876562 0 1690000 -813438 528 878 0.00
03/11/2015 711.13 877256 347 1690000 -812744 185 535 0.00
03/12/2015 711.26 878646 1390 1690000 -811354 183 883 0.00
03/13/2015 711.46 880037 695 1690000 -- 175 877 0.00
03/14/2015 711.63 880733 1740 1690000 -- 181 832 0.00
03/15/2015 711.75 882126 697 1690000 -807874 182 884 0.00
03/16/2015 711.92 882824 349 1690000 -807176 181 533 0.00
03/17/2015 712.09 884219 697 1690000 -805781 182 885 0.00
03/18/2015 712.27 885617 1049 1690000 -804383 181 886 0.00
03/19/2015 712.35 885617 0 1690000 -804383 481 481 0.00
03/20/2015 712.47 887016 699 1690000 -- 305 1011 0.00
03/21/2015 712.64 887716 1400 1690000 -- 171 524 0.00
03/22/2015 712.74 888416 1051 1690000 -801584 170 523 0.00
03/23/2015 712.87 889819 1052 1690000 -800532 171 878 0.00
03/24/2015 713.03 890520 351 1690000 -799480 172 525 0.00
03/25/2015 713.21 891925 1405 1690000 -798075 171 880 0.00
03/26/2015 713.36 893331 1055 1690000 -796669 184 893 0.00
03/27/2015 713.35 892980 -351 -- -- -- -- --
03/28/2015 713.50 894035 1055 -- -- -- -- --
03/29/2015 -- -- -- -- -- -- -- --

Later | Latest

Warning! This data is preliminary and subject to revision.

Show DNP Map | Plot DNP Data | 1 Month DNP Data | Real-Time DNP Data | DNP Info